createdAt,value
2022-08-22T00:00:12.022Z,17.33
2022-08-22T00:01:40.182Z,17.28
2022-08-22T00:02:42.143Z,18.44
2022-08-22T00:02:44.176Z,17.77
2022-08-22T00:02:53.533Z,18.56
2022-08-22T00:02:56.789Z,18.86
2022-08-22T00:03:06.867Z,17.13
2022-08-22T00:03:15.561Z,16.95
2022-08-22T00:03:16.136Z,17.24
2022-08-22T00:04:36.578Z,17.31
2022-08-22T00:06:06.826Z,17.31
2022-08-22T00:07:57.065Z,17.41
2022-08-22T00:09:11.908Z,17.41
2022-08-22T00:10:32.986Z,17.46
2022-08-22T00:11:52.472Z,17.61
2022-08-22T00:13:05.662Z,17.56
2022-08-22T00:14:35.190Z,17.61
2022-08-22T00:15:44.550Z,17.67
2022-08-22T00:17:10.349Z,17.72
2022-08-22T00:18:43.059Z,17.69
2022-08-22T00:19:57.673Z,17.65
2022-08-22T00:21:14.973Z,17.65
2022-08-22T00:22:25.676Z,17.73
2022-08-22T00:23:35.512Z,17.71
2022-08-22T00:24:48.835Z,17.56
2022-08-22T00:26:06.364Z,17.65
2022-08-22T00:27:23.905Z,17.58
2022-08-22T00:28:35.420Z,17.43
2022-08-22T00:29:46.156Z,17.51
2022-08-22T00:31:16.654Z,17.58
2022-08-22T00:32:47.046Z,17.46
2022-08-22T00:34:14.242Z,17.36
2022-08-22T00:35:42.937Z,17.42
2022-08-22T00:36:53.658Z,17.40
2022-08-22T00:38:11.074Z,17.34
2022-08-22T00:39:21.529Z,17.40
2022-08-22T00:40:54.815Z,17.50
2022-08-22T00:42:29.093Z,17.49
2022-08-22T00:44:00.122Z,17.45
2022-08-22T00:45:14.711Z,17.29
2022-08-22T00:46:36.334Z,17.28
2022-08-22T00:47:50.291Z,17.47
2022-08-22T00:48:52.871Z,17.31
2022-08-22T00:50:33.704Z,17.47
2022-08-22T00:52:08.771Z,17.49
2022-08-22T00:53:44.988Z,17.42
2022-08-22T00:55:12.601Z,17.39
2022-08-22T00:56:27.970Z,17.40
2022-08-22T00:58:08.044Z,17.34
2022-08-22T00:59:38.078Z,17.37
2022-08-22T01:01:07.046Z,17.32
2022-08-22T01:02:13.328Z,17.29
2022-08-22T01:03:39.048Z,17.34
2022-08-22T01:05:19.437Z,17.42
2022-08-22T01:06:27.925Z,17.44
2022-08-22T01:08:08.488Z,17.37
2022-08-22T01:09:33.367Z,17.26
2022-08-22T01:10:51.149Z,17.33
2022-08-22T01:11:53.948Z,17.31
2022-08-22T01:13:12.840Z,17.28
2022-08-22T01:14:35.207Z,17.33
2022-08-22T01:15:39.915Z,17.29
2022-08-22T01:16:55.068Z,17.53
2022-08-22T01:18:19.572Z,17.47
2022-08-22T01:20:00.660Z,17.35
2022-08-22T01:21:34.191Z,17.13
2022-08-22T01:22:54.852Z,17.19
2022-08-22T01:24:22.138Z,17.23
2022-08-22T01:25:45.846Z,17.25
2022-08-22T01:27:05.450Z,17.34
2022-08-22T01:28:11.911Z,17.46
2022-08-22T01:29:57.823Z,17.45
2022-08-22T01:31:12.839Z,17.58
2022-08-22T01:32:42.358Z,17.35
2022-08-22T01:33:45.056Z,17.42
2022-08-22T01:35:00.342Z,17.38
2022-08-22T01:36:21.361Z,17.25
2022-08-22T01:37:33.193Z,17.27
2022-08-22T01:38:55.314Z,17.28
2022-08-22T01:40:04.133Z,17.40
2022-08-22T01:41:25.527Z,17.48
2022-08-22T01:42:34.894Z,17.34
2022-08-22T01:44:13.258Z,17.11
2022-08-22T01:45:46.771Z,17.01
2022-08-22T01:46:54.968Z,17.20
2022-08-22T01:48:17.285Z,17.29
2022-08-22T01:49:35.232Z,17.25
2022-08-22T01:50:45.228Z,17.35
2022-08-22T01:52:00.060Z,17.31
2022-08-22T01:53:09.553Z,17.28
2022-08-22T01:54:36.307Z,17.34
2022-08-22T01:55:45.037Z,17.39
2022-08-22T01:56:48.360Z,17.44
2022-08-22T01:58:05.339Z,17.46
2022-08-22T01:59:17.805Z,17.56
2022-08-22T02:00:35.503Z,17.54
2022-08-22T02:01:41.433Z,17.61
2022-08-22T02:02:50.500Z,17.49
2022-08-22T02:03:58.887Z,17.23
2022-08-22T02:05:24.815Z,17.24
2022-08-22T02:06:43.018Z,17.25
2022-08-22T02:07:57.162Z,17.33
2022-08-22T02:09:11.224Z,17.20
2022-08-22T02:10:43.366Z,17.14
2022-08-22T02:12:00.477Z,17.21
2022-08-22T02:13:13.717Z,17.27
2022-08-22T02:14:43.537Z,17.24
2022-08-22T02:15:50.806Z,17.32
2022-08-22T02:17:16.237Z,17.33
2022-08-22T02:18:30.215Z,17.36
2022-08-22T02:19:47.322Z,17.34
2022-08-22T02:20:59.671Z,17.33
2022-08-22T02:22:18.326Z,17.45
2022-08-22T02:23:29.773Z,17.57
2022-08-22T02:24:47.729Z,17.72
2022-08-22T02:25:56.761Z,17.70
2022-08-22T02:27:05.332Z,17.58
2022-08-22T02:28:14.731Z,17.64
2022-08-22T02:29:29.655Z,17.71
2022-08-22T02:30:55.307Z,17.64
2022-08-22T02:32:08.781Z,17.54
2022-08-22T02:33:26.773Z,17.41
2022-08-22T02:34:53.819Z,17.45
2022-08-22T02:36:15.400Z,17.49
2022-08-22T02:37:34.385Z,17.53
2022-08-22T02:38:48.367Z,17.54
2022-08-22T02:40:17.068Z,17.54
2022-08-22T02:42:01.274Z,17.57
2022-08-22T02:43:21.887Z,17.65
2022-08-22T02:44:33.814Z,17.45
2022-08-22T02:45:53.128Z,17.47
2022-08-22T02:47:12.310Z,17.49
2022-08-22T02:49:20.115Z,17.46
2022-08-22T02:50:55.304Z,17.50
2022-08-22T02:52:08.600Z,17.64
2022-08-22T02:53:31.177Z,17.57
2022-08-22T02:54:47.851Z,17.62
2022-08-22T02:56:14.937Z,17.69
2022-08-22T02:57:27.106Z,17.75
2022-08-22T02:58:48.074Z,17.61
2022-08-22T03:00:32.088Z,17.60
2022-08-22T03:01:40.800Z,17.70
2022-08-22T03:02:44.665Z,17.67
2022-08-22T03:03:48.628Z,17.54
2022-08-22T03:04:54.558Z,17.39
2022-08-22T03:06:01.089Z,17.28
2022-08-22T03:07:08.017Z,17.20
2022-08-22T03:10:18.601Z,17.18
2022-08-22T03:11:32.425Z,17.18
2022-08-22T03:12:51.944Z,17.20
2022-08-22T03:14:16.625Z,17.24
2022-08-22T03:15:23.381Z,17.26
2022-08-22T03:16:28.797Z,17.30
2022-08-22T03:17:57.545Z,17.27
2022-08-22T03:19:18.403Z,17.23
2022-08-22T03:20:47.051Z,17.12
2022-08-22T03:22:08.520Z,17.17
2022-08-22T03:23:20.683Z,17.17
2022-08-22T03:24:39.855Z,17.16
2022-08-22T03:26:07.492Z,17.15
2022-08-22T03:27:39.840Z,17.18
2022-08-22T03:28:59.602Z,17.34
2022-08-22T03:30:18.174Z,17.32
2022-08-22T03:31:25.363Z,17.39
2022-08-22T03:32:55.257Z,17.43
2022-08-22T03:34:22.562Z,17.66
2022-08-22T03:35:51.714Z,17.61
2022-08-22T03:37:06.032Z,17.41
2022-08-22T03:38:24.046Z,17.41
2022-08-22T03:40:06.202Z,17.40
2022-08-22T03:41:31.919Z,17.55
2022-08-22T03:42:58.421Z,17.54
2022-08-22T03:44:06.829Z,17.45
2022-08-22T03:45:28.448Z,17.42
2022-08-22T03:46:56.026Z,17.40
2022-08-22T03:48:24.876Z,17.45
2022-08-22T03:49:54.077Z,17.70
2022-08-22T03:51:13.831Z,17.72
2022-08-22T03:52:30.822Z,17.71
2022-08-22T03:53:58.547Z,17.58
2022-08-22T03:55:19.702Z,17.50
2022-08-22T03:56:25.357Z,17.54
2022-08-22T03:57:59.215Z,17.64
2022-08-22T03:59:28.621Z,17.64
2022-08-22T04:01:04.380Z,17.59
2022-08-22T04:02:42.507Z,17.50
2022-08-22T04:04:05.695Z,17.57
2022-08-22T04:05:34.667Z,17.73
2022-08-22T04:06:56.618Z,17.57
2022-08-22T04:08:05.414Z,17.58
2022-08-22T04:09:26.722Z,17.82
2022-08-22T04:11:09.438Z,17.73
2022-08-22T04:12:15.617Z,17.68
2022-08-22T04:13:30.357Z,17.63
2022-08-22T04:15:25.625Z,17.65
2022-08-22T04:16:59.214Z,17.80
2022-08-22T04:18:07.964Z,17.75
2022-08-22T04:19:28.948Z,17.84
2022-08-22T04:20:56.852Z,17.96
2022-08-22T04:22:07.652Z,17.93
2022-08-22T04:23:25.231Z,17.80
2022-08-22T04:24:52.377Z,17.80
2022-08-22T04:26:12.824Z,17.73
2022-08-22T04:27:33.014Z,17.74
2022-08-22T04:28:43.972Z,17.83
2022-08-22T04:29:54.864Z,17.94
2022-08-22T04:31:03.605Z,18.07
2022-08-22T04:32:25.576Z,18.10
2022-08-22T04:33:41.111Z,17.94
2022-08-22T04:35:00.285Z,18.02
2022-08-22T04:36:26.865Z,17.98
2022-08-22T04:37:56.691Z,18.00
2022-08-22T04:39:25.273Z,18.01
2022-08-22T04:40:43.645Z,18.01
2022-08-22T04:42:00.729Z,18.16
2022-08-22T04:43:24.757Z,18.28
2022-08-22T04:44:36.789Z,18.30
2022-08-22T04:45:51.690Z,18.19
2022-08-22T04:47:17.349Z,18.26
2022-08-22T04:48:28.350Z,18.36
2022-08-22T04:49:55.134Z,18.44
2022-08-22T04:51:03.939Z,18.36
2022-08-22T04:52:22.036Z,18.39
2022-08-22T04:53:39.700Z,18.30
2022-08-22T04:54:47.930Z,18.40
2022-08-22T04:56:07.963Z,18.35
2022-08-22T04:57:27.637Z,18.30
2022-08-22T04:58:46.507Z,18.52
2022-08-22T04:59:51.176Z,18.52
2022-08-22T05:01:09.073Z,18.45
2022-08-22T05:02:21.527Z,18.55
2022-08-22T05:03:29.020Z,18.61
2022-08-22T05:04:36.728Z,18.46
2022-08-22T05:05:41.800Z,18.41
2022-08-22T05:06:50.236Z,18.50
2022-08-22T05:07:58.238Z,18.59
2022-08-22T05:09:07.891Z,18.53
2022-08-22T05:10:18.680Z,18.46
2022-08-22T05:11:24.701Z,18.54
2022-08-22T05:12:41.623Z,18.45
2022-08-22T05:13:51.500Z,18.34
2022-08-22T05:15:00.573Z,18.40
2022-08-22T05:16:10.292Z,18.61
2022-08-22T05:17:18.966Z,18.45
2022-08-22T05:18:31.083Z,18.39
2022-08-22T05:19:40.120Z,18.30
2022-08-22T05:20:47.364Z,18.35
2022-08-22T05:21:52.660Z,18.42
2022-08-22T05:23:05.893Z,18.38
2022-08-22T05:24:14.668Z,18.44
2022-08-22T05:25:27.163Z,18.41
2022-08-22T05:26:39.278Z,18.50
2022-08-22T05:27:48.717Z,18.49
2022-08-22T05:29:00.399Z,18.45
2022-08-22T05:30:11.902Z,18.42
2022-08-22T05:31:23.975Z,18.45
2022-08-22T05:32:32.779Z,18.45
2022-08-22T05:33:49.167Z,18.40
2022-08-22T05:34:58.797Z,18.49
2022-08-22T05:36:12.301Z,18.44
2022-08-22T05:37:23.259Z,18.33
2022-08-22T05:38:36.798Z,18.39
2022-08-22T05:39:47.321Z,18.46
2022-08-22T05:40:59.394Z,18.54
2022-08-22T05:42:03.799Z,18.50
2022-08-22T05:43:11.825Z,18.27
2022-08-22T05:44:25.431Z,18.26
2022-08-22T05:45:29.048Z,18.20
2022-08-22T05:46:35.058Z,18.28
2022-08-22T05:47:47.115Z,18.13
2022-08-22T05:49:03.382Z,18.25
2022-08-22T05:50:25.213Z,18.23
2022-08-22T05:51:42.927Z,18.38
2022-08-22T05:52:59.430Z,18.30
2022-08-22T05:54:14.608Z,18.42
2022-08-22T05:55:32.744Z,18.48
2022-08-22T05:56:42.155Z,18.52
2022-08-22T05:57:49.672Z,18.45
2022-08-22T05:58:53.126Z,18.50
2022-08-22T06:00:23.148Z,18.54
2022-08-22T06:01:28.950Z,18.54
2022-08-22T06:02:56.298Z,18.55
2022-08-22T06:04:20.320Z,18.42
2022-08-22T06:05:31.569Z,18.42
2022-08-22T06:06:43.469Z,18.69
2022-08-22T06:07:50.538Z,18.82
2022-08-22T06:09:03.044Z,18.88
2022-08-22T06:10:32.105Z,18.88
2022-08-22T06:11:52.023Z,18.93
2022-08-22T06:13:11.463Z,19.11
2022-08-22T06:14:24.755Z,19.12
2022-08-22T06:15:41.809Z,19.26
2022-08-22T06:17:13.548Z,19.31
2022-08-22T06:18:21.273Z,19.33
2022-08-22T06:19:25.849Z,19.11
2022-08-22T06:20:45.536Z,19.16
2022-08-22T06:21:52.240Z,19.30
2022-08-22T06:22:59.660Z,19.17
2022-08-22T06:24:05.395Z,19.38
2022-08-22T06:25:18.773Z,19.47
2022-08-22T06:26:24.031Z,19.53
2022-08-22T06:27:31.380Z,19.46
2022-08-22T06:28:54.709Z,19.37
2022-08-22T06:30:03.043Z,19.23
2022-08-22T06:31:15.868Z,19.09
2022-08-22T06:32:30.767Z,19.31
2022-08-22T06:33:46.077Z,19.33
2022-08-22T06:34:51.995Z,19.11
2022-08-22T06:36:30.330Z,19.23
2022-08-22T06:37:39.180Z,19.14
2022-08-22T06:39:03.553Z,18.97
2022-08-22T06:40:10.928Z,19.25
2022-08-22T06:41:13.907Z,19.24
2022-08-22T06:42:19.607Z,19.22
2022-08-22T06:43:25.631Z,19.22
2022-08-22T06:44:37.165Z,19.32
2022-08-22T06:45:41.265Z,19.28
2022-08-22T06:46:45.851Z,19.14
2022-08-22T06:48:12.081Z,19.29
2022-08-22T06:49:15.593Z,19.44
2022-08-22T06:50:20.049Z,19.48
2022-08-22T06:51:26.228Z,19.60
2022-08-22T06:52:33.269Z,19.46
2022-08-22T06:53:51.006Z,19.56
2022-08-22T06:55:02.717Z,19.51
2022-08-22T06:56:06.950Z,19.41
2022-08-22T06:57:33.289Z,19.47
2022-08-22T06:58:43.512Z,19.53
2022-08-22T06:59:46.569Z,19.43
2022-08-22T07:01:05.741Z,19.47
2022-08-22T07:02:36.934Z,19.50
2022-08-22T07:03:47.718Z,19.52
2022-08-22T07:04:51.809Z,19.68
2022-08-22T07:05:57.337Z,19.52
2022-08-22T07:07:02.728Z,19.49
2022-08-22T07:08:18.838Z,19.45
2022-08-22T07:09:27.522Z,19.44
2022-08-22T07:10:30.295Z,19.39
2022-08-22T07:11:39.191Z,19.69
2022-08-22T07:12:48.542Z,19.82
2022-08-22T07:13:59.714Z,20.00
2022-08-22T07:15:19.247Z,19.90
2022-08-22T07:16:31.917Z,20.10
2022-08-22T07:17:40.504Z,19.91
2022-08-22T07:18:49.362Z,19.87
2022-08-22T07:20:03.818Z,19.85
2022-08-22T07:21:09.280Z,19.87
2022-08-22T07:22:26.535Z,19.74
2022-08-22T07:23:45.345Z,19.83
2022-08-22T07:24:54.306Z,19.70
2022-08-22T07:26:21.214Z,19.85
2022-08-22T07:27:53.131Z,20.00
2022-08-22T07:29:14.438Z,20.12
2022-08-22T07:30:27.446Z,20.29
2022-08-22T07:31:49.032Z,20.35
2022-08-22T07:32:57.731Z,20.44
2022-08-22T07:34:53.675Z,20.26
2022-08-22T07:36:01.772Z,20.35
2022-08-22T07:37:15.703Z,19.98
2022-08-22T07:38:47.135Z,19.98
2022-08-22T07:40:08.709Z,19.95
2022-08-22T07:41:15.808Z,20.04
2022-08-22T07:42:28.544Z,20.26
2022-08-22T07:43:40.442Z,20.29
2022-08-22T07:45:16.519Z,20.22
2022-08-22T07:46:19.171Z,20.38
2022-08-22T07:47:28.107Z,20.41
2022-08-22T07:48:53.626Z,20.28
2022-08-22T07:50:07.601Z,20.43
2022-08-22T07:51:15.172Z,20.50
2022-08-22T07:52:22.921Z,20.61
2022-08-22T07:53:42.467Z,20.76
2022-08-22T07:55:03.430Z,20.77
2022-08-22T07:56:10.080Z,20.62
2022-08-22T07:57:25.016Z,20.58
2022-08-22T07:58:31.091Z,20.43
2022-08-22T07:59:37.631Z,20.28
2022-08-22T08:00:49.136Z,20.55
2022-08-22T08:01:53.988Z,20.59
2022-08-22T08:03:01.817Z,20.42
2022-08-22T08:04:09.684Z,20.56
2022-08-22T08:05:14.519Z,20.60
2022-08-22T08:06:17.410Z,20.64
2022-08-22T08:07:24.891Z,20.77
2022-08-22T08:08:45.873Z,20.61
2022-08-22T08:09:54.479Z,20.63
2022-08-22T08:10:59.444Z,20.87
2022-08-22T08:12:06.060Z,21.11
2022-08-22T08:13:25.479Z,20.78
2022-08-22T08:14:29.512Z,20.76
2022-08-22T08:15:35.208Z,20.80
2022-08-22T08:16:54.568Z,20.70
2022-08-22T08:18:04.066Z,20.55
2022-08-22T08:19:08.922Z,20.69
2022-08-22T08:20:17.519Z,20.48
2022-08-22T08:21:29.065Z,20.54
2022-08-22T08:22:33.043Z,20.36
2022-08-22T08:23:45.369Z,20.02
2022-08-22T08:24:58.855Z,20.23
2022-08-22T08:26:18.500Z,20.49
2022-08-22T08:27:50.117Z,20.11
2022-08-22T08:28:58.385Z,19.97
2022-08-22T08:30:15.377Z,19.99
2022-08-22T08:31:27.629Z,19.78
2022-08-22T08:32:34.590Z,19.88
2022-08-22T08:33:42.089Z,20.00
2022-08-22T08:34:45.042Z,20.02
2022-08-22T08:36:02.824Z,20.23
2022-08-22T08:37:33.570Z,20.25
2022-08-22T08:38:51.480Z,20.23
2022-08-22T08:39:58.659Z,20.21
2022-08-22T08:41:29.390Z,20.22
2022-08-22T08:43:27.733Z,20.29
2022-08-22T08:45:18.268Z,20.03
2022-08-22T08:46:36.191Z,20.09
2022-08-22T08:48:15.333Z,20.09
2022-08-22T08:49:38.765Z,19.98
2022-08-22T08:50:45.596Z,20.03
2022-08-22T08:52:16.118Z,19.98
2022-08-22T08:53:27.922Z,20.04
2022-08-22T08:54:55.968Z,20.21
2022-08-22T08:56:05.237Z,20.12
2022-08-22T08:57:45.457Z,20.13
2022-08-22T08:58:53.787Z,20.21
2022-08-22T09:00:03.788Z,20.18
2022-08-22T09:01:18.676Z,20.05
2022-08-22T09:02:48.275Z,19.96
2022-08-22T09:04:19.817Z,20.34
2022-08-22T09:05:47.393Z,20.25
2022-08-22T09:07:15.565Z,20.40
2022-08-22T09:08:24.920Z,20.50
2022-08-22T09:10:01.928Z,20.64
2022-08-22T09:11:46.605Z,20.57
2022-08-22T09:13:28.464Z,20.46
2022-08-22T09:15:14.148Z,20.46
2022-08-22T09:16:29.821Z,20.24
2022-08-22T09:17:34.955Z,20.39
2022-08-22T09:19:02.052Z,20.47
2022-08-22T09:20:23.273Z,20.50
2022-08-22T09:22:14.265Z,20.70
2022-08-22T09:23:35.920Z,20.63
2022-08-22T09:24:44.581Z,20.58
2022-08-22T09:26:16.045Z,20.54
2022-08-22T09:27:45.871Z,20.68
2022-08-22T09:29:01.524Z,20.79
2022-08-22T09:30:11.781Z,20.93
2022-08-22T09:31:47.460Z,21.03
2022-08-22T09:33:12.781Z,21.18
2022-08-22T09:34:35.651Z,21.44
2022-08-22T09:35:51.221Z,21.62
2022-08-22T09:37:19.684Z,21.59
2022-08-22T09:38:26.336Z,21.40
2022-08-22T09:39:38.343Z,21.35
2022-08-22T09:40:50.356Z,21.72
2022-08-22T09:42:08.069Z,21.97
2022-08-22T09:43:21.040Z,21.98
2022-08-22T09:44:39.737Z,21.50
2022-08-22T09:46:12.017Z,21.34
2022-08-22T09:47:24.644Z,21.85
2022-08-22T09:48:50.438Z,21.54
2022-08-22T09:50:14.009Z,21.54
2022-08-22T09:52:14.485Z,21.49
2022-08-22T09:53:47.151Z,21.39
2022-08-22T09:54:59.055Z,21.75
2022-08-22T09:56:33.979Z,21.91
2022-08-22T09:57:48.620Z,21.93
2022-08-22T09:59:05.355Z,21.55
2022-08-22T10:00:22.429Z,21.61
2022-08-22T10:01:32.771Z,21.80
2022-08-22T10:02:50.216Z,21.82
2022-08-22T10:04:04.646Z,21.66
2022-08-22T10:05:35.281Z,21.49
2022-08-22T10:06:50.978Z,21.52
2022-08-22T10:08:31.976Z,21.35
2022-08-22T10:10:02.163Z,21.25
2022-08-22T10:11:44.690Z,21.18
2022-08-22T10:12:59.680Z,21.35
2022-08-22T10:14:10.224Z,21.26
2022-08-22T10:15:46.931Z,21.10
2022-08-22T10:17:10.785Z,21.26
2022-08-22T10:18:53.736Z,21.71
2022-08-22T10:20:32.813Z,21.82
2022-08-22T10:21:47.859Z,21.56
2022-08-22T10:23:07.412Z,21.44
2022-08-22T10:24:36.550Z,21.64
2022-08-22T10:26:22.970Z,21.87
2022-08-22T10:27:42.547Z,21.46
2022-08-22T10:29:11.202Z,21.44
2022-08-22T10:30:27.681Z,21.26
2022-08-22T10:32:01.378Z,21.11
2022-08-22T10:33:23.155Z,21.38
2022-08-22T10:34:36.182Z,21.50
2022-08-22T10:36:04.825Z,21.70
2022-08-22T10:37:23.800Z,21.68
2022-08-22T10:38:43.962Z,21.45
2022-08-22T10:39:58.189Z,21.72
2022-08-22T10:41:09.832Z,21.95
2022-08-22T10:42:42.261Z,21.90
2022-08-22T10:44:15.911Z,21.56
2022-08-22T10:45:23.653Z,21.56
2022-08-22T10:46:42.055Z,21.72
2022-08-22T10:48:08.052Z,21.79
2022-08-22T10:49:28.222Z,21.62
2022-08-22T10:50:36.820Z,22.00
2022-08-22T10:52:15.346Z,22.11
2022-08-22T10:53:59.352Z,22.09
2022-08-22T10:55:29.325Z,22.33
2022-08-22T10:56:53.088Z,22.02
2022-08-22T10:58:09.653Z,22.42
2022-08-22T10:59:40.705Z,22.74
2022-08-22T11:00:54.869Z,22.62
2022-08-22T11:02:36.482Z,22.66
2022-08-22T11:04:05.700Z,22.78
2022-08-22T11:05:30.794Z,22.52
2022-08-22T11:06:46.535Z,22.79
2022-08-22T11:08:11.430Z,23.14
2022-08-22T11:09:56.325Z,22.61
2022-08-22T11:11:32.850Z,22.52
2022-08-22T11:12:43.875Z,22.69
2022-08-22T11:14:03.096Z,23.02
2022-08-22T11:15:40.997Z,23.04
2022-08-22T11:16:57.778Z,23.15
2022-08-22T11:18:24.013Z,23.32
2022-08-22T11:19:47.028Z,23.38
2022-08-22T11:21:07.129Z,23.12
2022-08-22T11:22:18.850Z,22.92
2022-08-22T11:23:24.413Z,22.55
2022-08-22T11:24:55.795Z,22.59
2022-08-22T11:26:33.761Z,23.13
2022-08-22T11:28:31.221Z,23.32
2022-08-22T11:29:59.343Z,23.03
2022-08-22T11:31:36.625Z,23.29
2022-08-22T11:33:33.853Z,23.19
2022-08-22T11:36:30.906Z,23.52
2022-08-22T11:38:05.348Z,22.89
2022-08-22T11:39:25.349Z,22.61
2022-08-22T11:40:38.727Z,22.51
2022-08-22T11:41:52.154Z,22.55
2022-08-22T11:43:18.391Z,22.82
2022-08-22T11:44:25.624Z,22.69
2022-08-22T11:45:38.086Z,22.91
2022-08-22T11:46:50.479Z,22.55
2022-08-22T11:48:02.980Z,22.57
2022-08-22T11:49:28.164Z,22.48
2022-08-22T11:50:45.995Z,22.93
2022-08-22T11:51:59.532Z,22.94
2022-08-22T11:53:26.375Z,23.01
2022-08-22T11:55:00.076Z,23.01
2022-08-22T11:56:21.646Z,23.61
2022-08-22T11:57:38.160Z,23.84
2022-08-22T11:59:16.508Z,24.00
2022-08-22T12:00:23.354Z,24.31
2022-08-22T12:01:36.932Z,24.36
2022-08-22T12:02:49.617Z,24.47
2022-08-22T12:03:59.704Z,24.26
2022-08-22T12:05:20.202Z,24.43
2022-08-22T12:06:49.721Z,24.53
2022-08-22T12:08:04.166Z,24.43
2022-08-22T12:09:25.949Z,24.63
2022-08-22T12:10:36.360Z,24.75
2022-08-22T12:12:05.387Z,24.61
2022-08-22T12:13:20.293Z,24.65
2022-08-22T12:14:54.721Z,23.94
2022-08-22T12:16:36.727Z,24.22
2022-08-22T12:17:55.714Z,24.19
2022-08-22T12:19:10.113Z,24.45
2022-08-22T12:20:19.839Z,24.48
2022-08-22T12:21:38.501Z,24.43
2022-08-22T12:23:01.295Z,24.01
2022-08-22T12:24:25.674Z,23.57
2022-08-22T12:25:52.508Z,23.77
2022-08-22T12:27:08.264Z,23.85
2022-08-22T12:28:46.337Z,23.66
2022-08-22T12:30:02.787Z,23.73
2022-08-22T12:31:16.122Z,23.49
2022-08-22T12:32:36.874Z,23.64
2022-08-22T12:33:53.240Z,23.30
2022-08-22T12:35:32.554Z,22.94
2022-08-22T12:36:58.729Z,22.83
2022-08-22T12:38:31.251Z,23.16
2022-08-22T12:39:53.233Z,22.37
2022-08-22T12:41:28.229Z,22.05
2022-08-22T12:43:15.417Z,22.00
2022-08-22T12:45:10.404Z,21.98
2022-08-22T12:46:47.311Z,22.16
2022-08-22T12:48:27.528Z,22.29
2022-08-22T12:49:30.446Z,22.36
2022-08-22T12:50:38.617Z,22.30
2022-08-22T12:52:18.613Z,22.16
2022-08-22T12:53:43.412Z,22.18
2022-08-22T12:55:32.740Z,22.33
2022-08-22T12:56:50.345Z,22.47
2022-08-22T12:58:26.575Z,22.60
2022-08-22T12:59:36.276Z,22.54
2022-08-22T13:00:45.445Z,22.43
2022-08-22T13:01:52.960Z,22.57
2022-08-22T13:02:56.265Z,22.74
2022-08-22T13:04:03.112Z,22.76
2022-08-22T13:05:19.689Z,22.53
2022-08-22T13:06:43.091Z,22.18
2022-08-22T13:08:31.786Z,21.98
2022-08-22T13:09:39.124Z,22.07
2022-08-22T13:10:47.148Z,21.92
2022-08-22T13:11:55.850Z,22.35
2022-08-22T13:13:03.964Z,22.37
2022-08-22T13:14:25.915Z,22.41
2022-08-22T13:15:33.547Z,22.37
2022-08-22T13:16:48.832Z,22.17
2022-08-22T13:17:55.917Z,22.04
2022-08-22T13:19:07.764Z,22.20
2022-08-22T13:20:26.784Z,22.28
2022-08-22T13:21:34.567Z,22.32
2022-08-22T13:22:45.494Z,22.63
2022-08-22T13:23:54.277Z,22.72
2022-08-22T13:25:08.695Z,22.76
2022-08-22T13:26:26.982Z,22.94
2022-08-22T13:27:51.351Z,22.59
2022-08-22T13:29:25.876Z,22.77
2022-08-22T13:30:37.705Z,22.75
2022-08-22T13:31:45.913Z,22.77
2022-08-22T13:32:56.912Z,22.78
2022-08-22T13:34:09.896Z,22.79
2022-08-22T13:35:30.919Z,22.71
2022-08-22T13:36:51.719Z,22.58
2022-08-22T13:38:12.507Z,22.89
2022-08-22T13:39:15.198Z,22.83
2022-08-22T13:40:29.501Z,22.87
2022-08-22T13:41:44.366Z,23.18
2022-08-22T13:42:54.228Z,23.02
2022-08-22T13:44:10.138Z,22.98
2022-08-22T13:45:21.898Z,22.82
2022-08-22T13:46:35.539Z,22.54
2022-08-22T13:47:51.299Z,22.10
2022-08-22T13:49:00.720Z,22.14
2022-08-22T13:50:17.148Z,22.09
2022-08-22T13:51:55.479Z,22.06
2022-08-22T13:53:21.558Z,21.94
2022-08-22T13:55:12.572Z,22.18
2022-08-22T13:56:24.692Z,22.46
2022-08-22T13:57:36.861Z,22.44
2022-08-22T13:58:51.548Z,22.51
2022-08-22T14:00:10.883Z,22.57
2022-08-22T14:01:31.306Z,22.62
2022-08-22T14:02:46.270Z,22.64
2022-08-22T14:03:57.810Z,22.11
2022-08-22T14:05:03.944Z,21.99
2022-08-22T14:06:37.403Z,22.01
2022-08-22T14:07:56.856Z,22.42
2022-08-22T14:09:31.389Z,22.52
2022-08-22T14:10:41.910Z,22.21
2022-08-22T14:11:54.305Z,22.24
2022-08-22T14:12:57.081Z,22.08
2022-08-22T14:14:06.464Z,21.83
2022-08-22T14:15:15.998Z,21.59
2022-08-22T14:16:30.882Z,21.78
2022-08-22T14:17:40.713Z,21.67
2022-08-22T14:18:55.125Z,21.27
2022-08-22T14:20:32.426Z,21.29
2022-08-22T14:21:46.131Z,21.13
2022-08-22T14:23:06.446Z,20.86
2022-08-22T14:24:25.725Z,21.07
2022-08-22T14:25:41.004Z,21.27
2022-08-22T14:26:57.969Z,21.17
2022-08-22T14:28:06.328Z,21.09
2022-08-22T14:29:16.172Z,21.09
2022-08-22T14:30:24.541Z,20.98
2022-08-22T14:31:29.094Z,20.64
2022-08-22T14:32:43.307Z,20.80
2022-08-22T14:33:54.822Z,20.95
2022-08-22T14:35:21.595Z,20.69
2022-08-22T14:36:53.769Z,20.70
2022-08-22T14:38:27.439Z,20.64
2022-08-22T14:39:50.241Z,20.72
2022-08-22T14:41:19.787Z,20.94
2022-08-22T14:42:27.911Z,21.08
2022-08-22T14:43:30.616Z,20.80
2022-08-22T14:44:42.476Z,20.61
2022-08-22T14:45:54.436Z,20.75
2022-08-22T14:47:15.863Z,20.73
2022-08-22T14:48:39.328Z,20.54
2022-08-22T14:49:55.764Z,20.33
2022-08-22T14:51:06.356Z,20.50
2022-08-22T14:52:25.858Z,20.23
2022-08-22T14:53:39.091Z,20.28
2022-08-22T14:54:45.005Z,20.14
2022-08-22T14:56:02.868Z,20.03
2022-08-22T14:57:20.483Z,20.10
2022-08-22T14:58:26.468Z,19.80
2022-08-22T14:59:50.328Z,19.50
2022-08-22T15:00:56.527Z,19.46
2022-08-22T15:02:06.469Z,19.43
2022-08-22T15:03:29.665Z,19.60
2022-08-22T15:04:38.249Z,19.55
2022-08-22T15:05:45.838Z,19.70
2022-08-22T15:06:57.813Z,19.80
2022-08-22T15:08:01.818Z,19.98
2022-08-22T15:09:31.172Z,20.00
2022-08-22T15:10:34.484Z,20.18
2022-08-22T15:11:42.042Z,20.16
2022-08-22T15:12:57.902Z,19.96
2022-08-22T15:14:16.186Z,20.15
2022-08-22T15:15:52.891Z,20.22
2022-08-22T15:17:02.730Z,20.08
2022-08-22T15:18:17.823Z,19.98
2022-08-22T15:19:35.916Z,19.73
2022-08-22T15:20:49.135Z,20.09
2022-08-22T15:22:15.233Z,19.93
2022-08-22T15:23:22.126Z,19.72
2022-08-22T15:24:25.979Z,20.09
2022-08-22T15:25:34.914Z,20.04
2022-08-22T15:26:50.165Z,20.13
2022-08-22T15:28:05.563Z,20.21
2022-08-22T15:29:15.944Z,20.21
2022-08-22T15:30:33.101Z,20.24
2022-08-22T15:31:46.890Z,20.25
2022-08-22T15:32:50.874Z,20.33
2022-08-22T15:34:07.816Z,20.39
2022-08-22T15:35:30.176Z,20.09
2022-08-22T15:36:33.093Z,20.19
2022-08-22T15:37:59.821Z,20.51
2022-08-22T15:39:32.186Z,20.22
2022-08-22T15:40:40.565Z,20.28
2022-08-22T15:41:48.487Z,20.39
2022-08-22T15:42:52.195Z,20.23
2022-08-22T15:44:06.026Z,20.50
2022-08-22T15:45:29.300Z,20.29
2022-08-22T15:46:55.832Z,20.07
2022-08-22T15:48:04.477Z,20.17
2022-08-22T15:49:28.159Z,20.11
2022-08-22T15:51:19.267Z,20.28
2022-08-22T15:52:31.020Z,19.99
2022-08-22T15:54:24.383Z,20.11
2022-08-22T15:55:29.001Z,19.95
2022-08-22T15:57:00.261Z,20.23
2022-08-22T15:58:05.729Z,19.99
2022-08-22T15:59:17.731Z,20.19
2022-08-22T16:00:36.627Z,20.17
2022-08-22T16:02:00.712Z,20.25
2022-08-22T16:03:23.598Z,19.87
2022-08-22T16:04:47.877Z,19.81
2022-08-22T16:05:55.956Z,19.85
2022-08-22T16:07:01.636Z,19.75
2022-08-22T16:08:10.821Z,19.79
2022-08-22T16:09:37.080Z,19.92
2022-08-22T16:10:49.368Z,19.99
2022-08-22T16:11:56.159Z,19.95
2022-08-22T16:13:35.717Z,19.92
2022-08-22T16:14:41.020Z,19.93
2022-08-22T16:15:52.907Z,19.80
2022-08-22T16:17:30.405Z,19.75
2022-08-22T16:18:42.666Z,20.01
2022-08-22T16:19:45.520Z,19.97
2022-08-22T16:20:53.296Z,19.80
2022-08-22T16:22:01.846Z,19.90
2022-08-22T16:23:04.468Z,19.78
2022-08-22T16:24:07.137Z,19.76
2022-08-22T16:25:10.657Z,19.66
2022-08-22T16:26:18.886Z,19.66
2022-08-22T16:27:26.092Z,19.63
2022-08-22T16:28:57.230Z,19.84
2022-08-22T16:30:09.937Z,19.72
2022-08-22T16:31:35.687Z,19.57
2022-08-22T16:32:39.388Z,19.69
2022-08-22T16:33:43.656Z,19.74
2022-08-22T16:34:46.612Z,19.68
2022-08-22T16:36:17.415Z,19.67
2022-08-22T16:37:25.851Z,19.66
2022-08-22T16:38:36.979Z,19.74
2022-08-22T16:39:42.524Z,19.75
2022-08-22T16:40:48.013Z,19.84
2022-08-22T16:41:55.068Z,19.92
2022-08-22T16:43:19.497Z,19.74
2022-08-22T16:44:31.069Z,19.61